Time;durP1;ratioP1;P1;durP2;ratioP2;P2;SDS_P1;SDS_P2;PMS_P1;PMS_P2;Temp;Humidity;BMP_temperature;BMP_pressure;BME280_temperature;BME280_humidity;BME280_pressure;Samples;Min_cycle;Max_cycle;Signal;HPM_P1;HPM_P2
2022/01/26 00:06:36;;;;;;;88.68;37.42;;;4.00;99.90;;;;;;5070039;28;20056;-87
2022/01/26 00:09:03;;;;;;;95.28;39.47;;;2.70;99.90;;;;;;5070495;28;20036;-88
2022/01/26 00:11:31;;;;;;;89.72;37.50;;;2.90;99.90;;;;;;5069788;28;20045;-85
2022/01/26 00:13:58;;;;;;;99.82;37.47;;;2.80;99.90;;;;;;5070432;28;20076;-88
2022/01/26 00:18:53;;;;;;;93.82;39.13;;;2.70;99.90;;;;;;5071647;28;20056;-87
2022/01/26 00:21:28;;;;;;;95.95;39.80;;;2.80;99.90;;;;;;5062574;28;20048;-82
2022/01/26 00:24:09;;;;;;;95.65;37.90;;;2.70;99.90;;;;;;5032636;28;20037;-83
2022/01/26 00:29:10;;;;;;;87.25;38.10;;;2.70;99.90;;;;;;5063556;28;20106;-85
2022/01/26 00:40:08;;;;;;;82.25;37.33;;;2.80;99.90;;;;;;5061110;28;20123;-83
2022/01/26 00:42:38;;;;;;;98.45;38.47;;;2.40;99.90;;;;;;5060521;28;20053;-80
2022/01/26 00:45:05;;;;;;;91.10;37.00;;;2.80;99.90;;;;;;5063091;28;20098;-82
2022/01/26 00:47:30;;;;;;;95.30;38.53;;;2.80;99.90;;;;;;5061276;28;20105;-80
2022/01/26 00:50:01;;;;;;;84.22;37.83;;;2.80;99.90;;;;;;5061449;28;20040;-83
2022/01/26 00:52:37;;;;;;;86.10;37.47;;;3.00;99.90;;;;;;5062127;28;20080;-84
2022/01/26 00:55:05;;;;;;;91.05;38.50;;;4.50;99.90;;;;;;5063278;28;20071;-86
2022/01/26 00:57:30;;;;;;;87.85;36.85;;;2.80;99.90;;;;;;5059543;28;20041;-82
2022/01/26 00:59:58;;;;;;;83.85;34.92;;;2.70;99.90;;;;;;5063636;28;20035;-81
2022/01/26 01:02:24;;;;;;;84.93;36.53;;;2.70;99.90;;;;;;5062860;28;20078;-85
2022/01/26 01:04:49;;;;;;;96.35;39.35;;;2.60;99.90;;;;;;5062673;28;20048;-80
2022/01/26 01:07:19;;;;;;;96.35;38.92;;;2.50;99.90;;;;;;5062091;28;20604;-84
2022/01/26 01:09:46;;;;;;;101.72;40.05;;;2.50;99.90;;;;;;5059475;28;20044;-81
2022/01/26 01:12:12;;;;;;;95.18;39.40;;;2.60;99.90;;;;;;5042642;28;20582;-81
2022/01/26 01:14:42;;;;;;;85.38;36.50;;;4.20;99.90;;;;;;5048209;28;20101;-87
2022/01/26 01:17:11;;;;;;;90.88;36.72;;;2.70;99.90;;;;;;5058067;28;20075;-84
2022/01/26 01:20:02;;;;;;;91.85;38.28;;;2.60;99.90;;;;;;5038373;28;20686;-82
2022/01/26 01:25:42;;;;;;;99.10;41.10;;;2.50;99.90;;;;;;5069141;28;20040;-82
2022/01/26 01:28:14;;;;;;;87.73;37.73;;;2.90;99.90;;;;;;5065331;28;20044;-87
2022/01/26 01:30:44;;;;;;;85.45;37.17;;;2.50;99.90;;;;;;5068493;28;20377;-86
2022/01/26 01:33:14;;;;;;;93.70;38.00;;;4.90;99.90;;;;;;5069690;28;20119;-86
2022/01/26 01:35:43;;;;;;;82.15;34.10;;;4.90;99.90;;;;;;5052100;28;20044;-87
2022/01/26 01:38:13;;;;;;;98.30;39.33;;;2.40;99.90;;;;;;5068886;28;20044;-85
2022/01/26 01:40:43;;;;;;;94.82;37.92;;;2.70;99.90;;;;;;5081718;28;20555;-83
2022/01/26 01:43:10;;;;;;;83.65;36.67;;;2.40;99.90;;;;;;5074395;28;20154;-86
2022/01/26 01:45:44;;;;;;;85.05;35.95;;;2.60;99.90;;;;;;5072502;28;20040;-85
2022/01/26 01:48:15;;;;;;;93.28;38.05;;;2.40;99.90;;;;;;5071511;28;20121;-86
2022/01/26 01:50:42;;;;;;;96.28;36.78;;;3.70;99.90;;;;;;5072338;28;20048;-82
2022/01/26 01:53:12;;;;;;;85.70;35.50;;;2.40;99.90;;;;;;5073198;28;20118;-86
2022/01/26 01:55:40;;;;;;;83.55;35.05;;;2.60;99.90;;;;;;5072220;28;20043;-87
2022/01/26 01:58:07;;;;;;;86.47;34.08;;;2.60;99.90;;;;;;5072986;28;20131;-84
2022/01/26 02:00:34;;;;;;;95.03;37.63;;;2.50;99.90;;;;;;5057740;28;20049;-85
2022/01/26 02:03:00;;;;;;;88.05;38.15;;;2.60;99.90;;;;;;5056615;28;20036;-86
2022/01/26 02:05:26;;;;;;;89.50;36.47;;;2.50;99.90;;;;;;5072125;28;20171;-85
2022/01/26 02:07:52;;;;;;;91.15;36.75;;;2.70;99.90;;;;;;5074523;28;20115;-85
2022/01/26 02:10:18;;;;;;;92.35;37.60;;;2.60;99.90;;;;;;5072317;28;20055;-80
2022/01/26 02:12:48;;;;;;;99.75;38.47;;;2.50;99.90;;;;;;5071361;28;20437;-84
2022/01/26 02:15:22;;;;;;;98.57;39.53;;;2.10;99.90;;;;;;5071990;28;20048;-87
2022/01/26 02:18:15;;;;;;;100.28;38.22;;;2.60;99.90;;;;;;5055724;28;20041;-85
2022/01/26 02:56:04;;;;;;;97.63;37.65;;;2.40;99.90;;;;;;5081765;28;20040;-85
2022/01/26 03:03:42;;;;;;;103.45;38.85;;;4.00;99.90;;;;;;5053439;28;20044;-86
2022/01/26 03:06:13;;;;;;;95.35;38.33;;;2.50;99.90;;;;;;5054013;28;20127;-87
2022/01/26 03:08:44;;;;;;;89.30;36.55;;;2.50;99.90;;;;;;5072205;28;20076;-87
2022/01/26 03:11:14;;;;;;;76.88;30.13;;;4.80;99.90;;;;;;5072729;28;20055;-87
2022/01/26 03:13:49;;;;;;;89.72;38.22;;;2.40;99.90;;;;;;5070605;28;20503;-85
2022/01/26 03:16:27;;;;;;;87.43;36.30;;;2.20;99.90;;;;;;5071826;28;20539;-85
2022/01/26 03:19:02;;;;;;;94.40;37.00;;;2.30;99.90;;;;;;5064609;28;20052;-86
2022/01/26 03:21:32;;;;;;;87.63;37.35;;;2.40;99.90;;;;;;5068833;28;20087;-85
2022/01/26 03:34:52;;;;;;;82.18;33.90;;;2.60;99.90;;;;;;5056358;28;20713;-87
2022/01/26 03:37:22;;;;;;;84.97;34.58;;;2.00;99.90;;;;;;5053821;28;20066;-85
2022/01/26 03:39:50;;;;;;;82.05;33.92;;;2.40;99.90;;;;;;5069666;28;20060;-87
2022/01/26 03:42:16;;;;;;;74.30;31.80;;;2.50;99.90;;;;;;5070421;28;20492;-87
2022/01/26 03:44:42;;;;;;;80.32;33.88;;;1.10;99.90;;;;;;5070530;28;20054;-86
2022/01/26 03:47:09;;;;;;;77.90;32.35;;;2.50;99.90;;;;;;5070274;28;20040;-87
2022/01/26 03:49:35;;;;;;;72.25;31.75;;;2.50;99.90;;;;;;5070532;28;20438;-87
2022/01/26 03:52:05;;;;;;;75.35;32.70;;;2.40;99.90;;;;;;5070969;28;20053;-86
2022/01/26 03:54:32;;;;;;;78.03;34.28;;;2.50;99.90;;;;;;5070018;28;20123;-86
2022/01/26 03:56:58;;;;;;;75.22;32.95;;;2.40;99.90;;;;;;5071149;28;20098;-86
2022/01/26 03:59:23;;;;;;;72.90;32.03;;;2.50;99.90;;;;;;5055890;28;20052;-87
2022/01/26 04:01:49;;;;;;;73.93;32.60;;;2.20;99.90;;;;;;5054790;28;20430;-87
2022/01/26 04:04:16;;;;;;;72.97;31.40;;;2.50;99.90;;;;;;5070421;28;20040;-87
2022/01/26 04:06:41;;;;;;;71.25;32.13;;;2.50;99.90;;;;;;5069909;28;20040;-87
2022/01/26 04:09:10;;;;;;;77.20;33.08;;;2.50;99.90;;;;;;5053462;28;20154;-87
2022/01/26 04:14:07;;;;;;;72.47;31.95;;;2.50;99.90;;;;;;5071798;28;20040;-86
2022/01/26 04:16:33;;;;;;;72.72;30.60;;;2.50;99.90;;;;;;5070586;28;20040;-88
2022/01/26 04:18:59;;;;;;;69.40;32.25;;;2.40;99.90;;;;;;5052697;28;20082;-87
2022/01/26 04:29:27;;;;;;;74.32;31.65;;;2.40;99.90;;;;;;5068674;28;20098;-80
2022/01/26 04:31:56;;;;;;;69.82;29.83;;;4.30;99.90;;;;;;5070093;28;20052;-85
2022/01/26 04:34:23;;;;;;;73.30;32.35;;;2.60;99.90;;;;;;5070820;28;20044;-79
2022/01/26 04:36:58;;;;;;;69.47;29.60;;;3.30;99.90;;;;;;5068940;28;20131;-86
2022/01/26 04:39:32;;;;;;;69.68;31.27;;;3.00;99.90;;;;;;5049897;28;20064;-85
2022/01/26 04:42:18;;;;;;;69.22;30.30;;;2.60;99.90;;;;;;5066940;28;20086;-86
2022/01/26 04:44:56;;;;;;;73.63;30.92;;;2.60;99.90;;;;;;5069133;28;20039;-83
2022/01/26 04:47:21;;;;;;;71.93;31.60;;;2.30;99.90;;;;;;5069573;28;20053;-84
2022/01/26 04:49:47;;;;;;;69.35;30.40;;;2.50;99.90;;;;;;5053066;28;20074;-86
2022/01/26 04:52:18;;;;;;;69.07;30.38;;;2.50;99.90;;;;;;5069024;28;20157;-85
2022/01/26 04:54:44;;;;;;;66.50;30.33;;;3.00;99.90;;;;;;5052816;28;20053;-87
2022/01/26 04:57:10;;;;;;;66.63;29.58;;;2.40;99.90;;;;;;5068575;28;20052;-86
2022/01/26 04:59:36;;;;;;;66.95;29.98;;;2.40;99.90;;;;;;5052440;28;20412;-87
2022/01/26 05:02:03;;;;;;;65.03;29.48;;;2.50;99.90;;;;;;5040447;28;20131;-84
2022/01/26 05:04:29;;;;;;;65.20;30.10;;;2.50;99.90;;;;;;5066173;28;20143;-83
2022/01/26 05:06:55;;;;;;;69.55;29.70;;;2.20;99.90;;;;;;5051547;28;20131;-87
2022/01/26 05:09:21;;;;;;;59.60;27.85;;;2.50;99.90;;;;;;5065650;28;20123;-85
2022/01/26 05:11:50;;;;;;;66.65;28.17;;;2.30;99.90;;;;;;5052086;28;20431;-87
2022/01/26 05:14:15;;;;;;;66.50;29.50;;;2.40;99.90;;;;;;5053711;28;20048;-87
2022/01/26 05:16:41;;;;;;;68.78;29.73;;;2.50;99.90;;;;;;5051993;28;20537;-87
2022/01/26 05:19:07;;;;;;;67.28;30.33;;;2.30;99.90;;;;;;5069344;28;20072;-86
2022/01/26 05:21:33;;;;;;;67.15;29.65;;;2.30;99.90;;;;;;5070711;28;20123;-85
2022/01/26 05:23:59;;;;;;;63.90;28.27;;;2.30;99.90;;;;;;5062870;28;20041;-87
2022/01/26 05:26:25;;;;;;;66.00;28.90;;;2.40;99.90;;;;;;5068296;28;20056;-87
2022/01/26 05:28:50;;;;;;;64.22;28.58;;;2.40;99.90;;;;;;5053061;28;20504;-88
2022/01/26 05:31:16;;;;;;;59.22;27.60;;;2.40;99.90;;;;;;5069829;28;20045;-83
2022/01/26 05:33:42;;;;;;;66.03;29.15;;;2.50;99.90;;;;;;5068539;28;20048;-83
2022/01/26 05:36:08;;;;;;;62.78;28.73;;;2.40;99.90;;;;;;5071195;28;20044;-87
2022/01/26 05:38:33;;;;;;;73.68;30.45;;;3.50;99.90;;;;;;5049213;28;20048;-87
2022/01/26 05:41:01;;;;;;;70.68;30.30;;;2.30;99.90;;;;;;5065523;28;20045;-87
2022/01/26 05:43:30;;;;;;;66.32;28.27;;;2.30;99.90;;;;;;5077626;28;20040;-87
2022/01/26 05:46:01;;;;;;;68.25;29.10;;;2.20;99.90;;;;;;5070400;28;20487;-88
2022/01/26 05:48:26;;;;;;;63.47;29.50;;;2.30;99.90;;;;;;5068690;28;20404;-86
2022/01/26 05:50:54;;;;;;;70.88;29.73;;;2.30;99.90;;;;;;5053084;28;20058;-85
2022/01/26 05:53:21;;;;;;;68.35;30.13;;;2.20;99.90;;;;;;5052121;28;20048;-82
2022/01/26 05:55:55;;;;;;;65.47;27.77;;;2.30;99.90;;;;;;5069605;28;20044;-86
2022/01/26 05:58:21;;;;;;;64.20;28.90;;;2.30;99.90;;;;;;5052741;28;20064;-84
2022/01/26 06:00:47;;;;;;;70.95;28.08;;;2.10;99.90;;;;;;5056258;28;20090;-86
2022/01/26 06:03:13;;;;;;;72.10;29.75;;;2.20;99.90;;;;;;5037910;28;20080;-86
2022/01/26 06:05:39;;;;;;;66.32;29.08;;;2.20;99.90;;;;;;5069588;28;20079;-86
2022/01/26 06:08:05;;;;;;;66.72;30.23;;;2.30;99.90;;;;;;5069864;28;20068;-86
2022/01/26 06:10:30;;;;;;;66.80;28.35;;;2.40;99.90;;;;;;5068755;28;20153;-81
2022/01/26 06:12:56;;;;;;;64.47;28.63;;;2.20;99.90;;;;;;5070174;28;20502;-85
2022/01/26 06:15:22;;;;;;;61.65;26.63;;;2.30;99.90;;;;;;5068557;28;20435;-86
2022/01/26 06:17:48;;;;;;;60.88;27.48;;;2.30;99.90;;;;;;5069278;28;20052;-84
2022/01/26 06:20:13;;;;;;;69.32;29.05;;;2.30;99.90;;;;;;5070189;28;20041;-83
2022/01/26 06:22:39;;;;;;;59.53;26.70;;;2.20;99.90;;;;;;5051566;28;20482;-86
2022/01/26 06:25:07;;;;;;;68.38;27.17;;;2.20;99.90;;;;;;5070544;28;20115;-85
2022/01/26 06:27:38;;;;;;;61.70;24.08;;;2.30;99.90;;;;;;5071513;28;20543;-86
2022/01/26 06:30:05;;;;;;;64.28;29.52;;;2.20;99.90;;;;;;5070655;28;20107;-86
2022/01/26 06:32:32;;;;;;;56.22;27.58;;;2.30;99.90;;;;;;5072126;28;20044;-83
2022/01/26 06:34:58;;;;;;;63.95;30.10;;;2.10;99.90;;;;;;5073432;28;20056;-84
2022/01/26 06:37:24;;;;;;;62.72;28.58;;;2.30;99.90;;;;;;5055357;28;20044;-85
2022/01/26 06:39:49;;;;;;;64.45;28.65;;;3.80;99.90;;;;;;5055891;28;20202;-86
2022/01/26 06:42:19;;;;;;;72.47;30.42;;;2.10;99.90;;;;;;5073015;28;20053;-87
2022/01/26 06:44:55;;;;;;;72.40;30.17;;;2.20;99.90;;;;;;5073273;28;20045;-82
2022/01/26 06:47:47;;;;;;;65.93;28.42;;;2.20;99.90;;;;;;5072358;28;20044;-86
2022/01/26 06:50:07;;;;;;;66.88;30.77;;;2.20;99.90;;;;;;5071071;28;20048;-86
2022/01/26 06:52:33;;;;;;;67.95;30.60;;;2.30;99.90;;;;;;5055170;28;20056;-87
2022/01/26 06:54:58;;;;;;;69.95;31.23;;;2.30;99.90;;;;;;5068853;28;20075;-85
2022/01/26 06:57:24;;;;;;;63.20;28.00;;;3.10;99.90;;;;;;5065858;28;20042;-86
2022/01/26 06:59:49;;;;;;;70.25;30.58;;;2.20;99.90;;;;;;5053452;28;20521;-85
2022/01/26 07:02:15;;;;;;;69.35;31.40;;;2.30;99.90;;;;;;5071944;28;20138;-86
2022/01/26 07:04:41;;;;;;;75.45;34.80;;;2.70;99.90;;;;;;5071360;28;20050;-86
2022/01/26 07:07:06;;;;;;;72.70;32.17;;;2.20;99.90;;;;;;5072484;28;20131;-83
2022/01/26 07:09:32;;;;;;;65.30;31.23;;;2.30;99.90;;;;;;5073015;28;20051;-86
2022/01/26 07:11:57;;;;;;;75.68;34.60;;;2.90;99.90;;;;;;5071458;28;20048;-86
2022/01/26 07:19:46;;;;;;;72.25;32.30;;;2.20;99.90;;;;;;5071952;28;20389;-87
2022/01/26 07:20:33;;;;;;;74.43;33.60;;;2.90;99.90;;;;;;5070706;28;20110;-86
2022/01/26 07:22:41;;;;;;;69.68;31.73;;;2.40;99.90;;;;;;5071524;28;20059;-86
2022/01/26 07:25:07;;;;;;;82.47;35.25;;;2.30;99.90;;;;;;5073200;28;20399;-80
2022/01/26 07:27:33;;;;;;;78.25;35.65;;;2.40;99.90;;;;;;5071823;28;20048;-85
2022/01/26 07:30:01;;;;;;;76.72;34.42;;;2.20;99.90;;;;;;5073373;28;20123;-87
2022/01/26 07:32:29;;;;;;;72.85;33.55;;;2.40;99.90;;;;;;5053571;28;20049;-85
2022/01/26 07:34:55;;;;;;;98.38;49.15;;;2.40;99.90;;;;;;5070806;28;20563;-87
2022/01/26 07:37:22;;;;;;;78.68;34.75;;;2.60;99.90;;;;;;5070851;28;20051;-80
2022/01/26 07:40:00;;;;;;;66.30;28.00;;;2.30;99.90;;;;;;5070138;28;20135;-81
2022/01/26 07:42:26;;;;;;;75.05;33.42;;;2.30;99.90;;;;;;5070983;28;20496;-83
2022/01/26 07:44:52;;;;;;;78.38;35.90;;;2.20;99.90;;;;;;5070208;28;20090;-86
2022/01/26 07:47:17;;;;;;;75.28;34.50;;;2.40;99.90;;;;;;5059283;28;20572;-81
2022/01/26 07:49:43;;;;;;;78.45;34.80;;;2.00;99.90;;;;;;5064492;28;20392;-84
2022/01/26 07:52:09;;;;;;;81.03;37.20;;;2.40;99.90;;;;;;5074952;28;20045;-85
2022/01/26 07:54:35;;;;;;;83.85;37.28;;;2.90;99.90;;;;;;5071823;28;20056;-82
2022/01/26 07:57:01;;;;;;;84.55;39.40;;;2.20;99.90;;;;;;5055242;28;20036;-82
2022/01/26 07:59:27;;;;;;;82.68;37.35;;;2.40;99.90;;;;;;5071165;28;20064;-86
2022/01/26 08:01:53;;;;;;;80.38;36.72;;;2.10;99.90;;;;;;5067594;28;20048;-83
2022/01/26 08:04:19;;;;;;;94.10;40.97;;;2.80;99.90;;;;;;5064960;28;20044;-83
2022/01/26 08:06:44;;;;;;;86.13;41.13;;;1.90;99.90;;;;;;5068668;28;20051;-83
2022/01/26 08:09:11;;;;;;;90.15;41.63;;;2.40;99.90;;;;;;5070059;28;20488;-84
2022/01/26 08:11:37;;;;;;;87.57;39.88;;;2.50;99.90;;;;;;5053602;28;20039;-82
2022/01/26 08:14:03;;;;;;;90.13;41.50;;;2.90;99.90;;;;;;5053843;28;20064;-83
2022/01/26 08:16:28;;;;;;;95.20;41.72;;;2.50;99.90;;;;;;5054146;28;20040;-86
2022/01/26 08:18:54;;;;;;;94.70;42.28;;;4.10;99.90;;;;;;5070855;28;20385;-86
2022/01/26 08:21:20;;;;;;;95.95;42.03;;;2.40;99.90;;;;;;5053196;28;20127;-84
2022/01/26 08:23:48;;;;;;;92.28;42.65;;;4.20;99.90;;;;;;5054178;28;20102;-84
2022/01/26 08:26:14;;;;;;;87.97;41.20;;;2.50;99.90;;;;;;5067249;28;20102;-84
2022/01/26 08:28:45;;;;;;;92.88;43.38;;;2.50;99.90;;;;;;5068554;28;20123;-84
2022/01/26 08:31:12;;;;;;;99.22;44.33;;;2.60;99.90;;;;;;5051906;28;20369;-83
2022/01/26 08:33:38;;;;;;;91.32;43.33;;;1.90;99.90;;;;;;5047536;28;20043;-83
2022/01/26 08:36:04;;;;;;;98.45;42.88;;;3.00;99.90;;;;;;5068330;28;20056;-82
2022/01/26 08:38:30;;;;;;;101.35;45.05;;;2.60;99.90;;;;;;5069791;28;20123;-84
2022/01/26 08:40:55;;;;;;;97.30;42.97;;;2.60;99.90;;;;;;5066667;28;20560;-86
2022/01/26 08:43:21;;;;;;;91.63;42.13;;;2.60;99.90;;;;;;5069263;28;20029;-84
2022/01/26 08:45:47;;;;;;;98.03;44.58;;;2.60;99.90;;;;;;5061925;28;20396;-85
2022/01/26 08:48:12;;;;;;;92.93;43.05;;;2.50;99.90;;;;;;5070248;28;20036;-81
2022/01/26 08:50:38;;;;;;;93.10;44.90;;;2.70;99.90;;;;;;5067349;28;20043;-82
2022/01/26 08:53:04;;;;;;;98.25;44.60;;;4.50;99.90;;;;;;5069805;28;20041;-82
2022/01/26 08:55:29;;;;;;;103.90;47.03;;;2.70;99.90;;;;;;5048002;28;20392;-82
2022/01/26 08:57:55;;;;;;;95.72;43.55;;;2.70;99.90;;;;;;5070377;28;20052;-81
2022/01/26 09:00:21;;;;;;;96.90;44.38;;;2.80;99.90;;;;;;5068435;28;20037;-83
2022/01/26 09:02:47;;;;;;;90.38;40.65;;;2.80;99.90;;;;;;5048368;28;20036;-84
2022/01/26 09:05:13;;;;;;;88.07;43.40;;;2.70;99.90;;;;;;5069566;28;20511;-82
2022/01/26 09:07:43;;;;;;;84.93;42.40;;;2.80;99.90;;;;;;5051336;28;20128;-82
2022/01/26 09:10:09;;;;;;;90.15;43.83;;;2.90;99.90;;;;;;5070242;28;20091;-81
2022/01/26 09:12:37;;;;;;;90.88;42.95;;;2.90;99.90;;;;;;5069372;28;20079;-81
2022/01/26 09:15:05;;;;;;;79.63;36.33;;;2.90;99.90;;;;;;5070380;28;20041;-81
2022/01/26 09:17:33;;;;;;;84.70;39.67;;;3.00;99.90;;;;;;5069037;28;20055;-82
2022/01/26 09:20:00;;;;;;;86.78;41.40;;;3.00;99.90;;;;;;5053065;28;20040;-88
2022/01/26 09:22:30;;;;;;;81.25;39.65;;;3.10;99.90;;;;;;5063546;28;20063;-87
2022/01/26 09:25:00;;;;;;;80.13;38.97;;;3.00;99.90;;;;;;5036609;28;20024;-87
2022/01/26 09:27:28;;;;;;;73.30;36.95;;;4.30;99.90;;;;;;5037949;28;20079;-87
2022/01/26 09:29:53;;;;;;;79.97;39.72;;;2.90;99.90;;;;;;5053765;28;20043;-88
2022/01/26 09:32:19;;;;;;;82.60;39.20;;;4.10;99.90;;;;;;5068748;28;20032;-86
2022/01/26 09:34:45;;;;;;;80.05;39.88;;;3.10;99.90;;;;;;5071526;28;20036;-87
2022/01/26 09:37:19;;;;;;;71.47;37.40;;;3.10;99.90;;;;;;5070089;28;20041;-88
2022/01/26 09:39:47;;;;;;;81.53;41.15;;;3.10;99.90;;;;;;5076580;28;20044;-83
2022/01/26 09:42:13;;;;;;;80.30;40.75;;;3.20;99.90;;;;;;5071657;28;20074;-87
2022/01/26 09:44:39;;;;;;;82.40;40.67;;;2.20;99.90;;;;;;5069691;28;20039;-85
2022/01/26 09:47:06;;;;;;;75.20;39.08;;;3.20;99.90;;;;;;5071474;28;20119;-82
2022/01/26 09:49:33;;;;;;;72.63;37.10;;;3.30;99.90;;;;;;5063893;28;20051;-87
2022/01/26 09:52:06;;;;;;;83.20;39.63;;;3.20;99.90;;;;;;5070934;28;20040;-88
2022/01/26 09:54:32;;;;;;;80.40;40.30;;;3.30;99.90;;;;;;5070108;28;20392;-88
2022/01/26 09:57:02;;;;;;;76.35;37.78;;;4.10;99.90;;;;;;5070150;28;20480;-84
2022/01/26 09:59:28;;;;;;;75.55;35.78;;;3.40;99.90;;;;;;5056511;28;20049;-83
2022/01/26 10:01:54;;;;;;;74.28;39.15;;;3.90;99.90;;;;;;5060485;28;20048;-85
2022/01/26 10:04:37;;;;;;;82.15;36.35;;;3.40;99.90;;;;;;5049228;28;20047;-84
2022/01/26 10:07:27;;;;;;;75.30;38.90;;;3.30;99.90;;;;;;5059520;28;20133;-85
2022/01/26 10:18:16;;;;;;;76.95;40.83;;;3.50;99.90;;;;;;5073390;28;20087;-87
2022/01/26 10:20:50;;;;;;;78.22;40.83;;;3.50;99.90;;;;;;5061926;28;20552;-87
2022/01/26 10:23:22;;;;;;;76.60;40.35;;;3.50;99.90;;;;;;5072978;28;20500;-85
2022/01/26 10:26:19;;;;;;;74.63;36.25;;;3.50;99.90;;;;;;5070338;28;20045;-87
2022/01/26 10:28:48;;;;;;;77.20;38.40;;;3.60;99.90;;;;;;5070274;28;20062;-84
2022/01/26 10:31:16;;;;;;;67.55;34.75;;;3.60;99.90;;;;;;5049491;28;20041;-86
2022/01/26 10:34:00;;;;;;;84.10;38.28;;;3.60;99.90;;;;;;5071826;28;20429;-84
2022/01/26 10:36:42;;;;;;;80.10;34.80;;;3.70;99.90;;;;;;5055602;28;20058;-86
2022/01/26 10:39:20;;;;;;;75.28;37.15;;;3.70;99.90;;;;;;5066961;28;20044;-82
2022/01/26 10:41:48;;;;;;;79.63;37.65;;;3.70;99.90;;;;;;5055551;28;20044;-83
2022/01/26 10:44:16;;;;;;;71.75;35.67;;;3.70;99.90;;;;;;5056349;28;20033;-82
2022/01/26 10:46:42;;;;;;;72.68;34.22;;;3.60;99.90;;;;;;5055306;28;20047;-81
2022/01/26 10:56:49;;;;;;;65.05;34.10;;;3.70;99.90;;;;;;5078728;28;20060;-84
2022/01/26 10:59:16;;;;;;;68.60;34.03;;;3.80;99.90;;;;;;5072602;28;20044;-86
2022/01/26 11:01:41;;;;;;;73.32;35.10;;;3.80;99.90;;;;;;5054519;28;20040;-80
2022/01/26 11:04:08;;;;;;;63.83;31.95;;;3.80;99.90;;;;;;5056484;28;20036;-84
2022/01/26 11:06:40;;;;;;;72.93;34.83;;;3.80;99.90;;;;;;5071799;28;20040;-82
2022/01/26 11:09:11;;;;;;;67.47;32.97;;;3.80;99.90;;;;;;5055150;28;20052;-84
2022/01/26 11:11:39;;;;;;;73.35;34.10;;;3.80;99.90;;;;;;5064301;28;20041;-82
2022/01/26 11:14:16;;;;;;;66.85;30.50;;;3.80;99.90;;;;;;5071447;28;20068;-80
2022/01/26 11:16:50;;;;;;;73.80;33.92;;;3.80;99.90;;;;;;5069830;28;20480;-84
2022/01/26 11:19:16;;;;;;;74.00;35.95;;;3.70;99.90;;;;;;5073556;28;20054;-84
2022/01/26 11:21:43;;;;;;;64.65;30.55;;;3.70;99.90;;;;;;5071596;28;20484;-84
2022/01/26 11:24:29;;;;;;;66.40;32.33;;;3.50;99.90;;;;;;5055054;28;20047;-81
2022/01/26 11:27:05;;;;;;;63.13;28.67;;;3.70;99.90;;;;;;5065552;28;20083;-82
2022/01/26 11:29:34;;;;;;;74.88;33.53;;;3.80;99.90;;;;;;5054127;28;20072;-85
2022/01/26 11:32:26;;;;;;;67.80;32.30;;;3.70;99.90;;;;;;5055400;28;20040;-87
2022/01/26 11:34:53;;;;;;;74.85;33.88;;;3.70;99.90;;;;;;5066468;28;20044;-85
2022/01/26 11:37:37;;;;;;;65.10;31.98;;;3.70;99.90;;;;;;5054250;28;20044;-85
2022/01/26 11:45:26;;;;;;;72.88;34.78;;;3.70;99.90;;;;;;5070794;28;20044;-86
2022/01/26 11:48:09;;;;;;;70.60;32.38;;;3.80;99.90;;;;;;5072841;28;20113;-86
2022/01/26 11:50:37;;;;;;;69.30;34.08;;;3.80;99.90;;;;;;5070222;28;20049;-86
2022/01/26 11:53:08;;;;;;;79.93;37.97;;;3.70;99.90;;;;;;5067730;28;20040;-84
2022/01/26 11:55:34;;;;;;;82.43;37.25;;;3.70;99.90;;;;;;5052429;28;20032;-81
2022/01/26 11:58:12;;;;;;;85.00;38.63;;;3.70;99.90;;;;;;5072086;28;20493;-88
2022/01/26 12:00:52;;;;;;;81.13;37.08;;;3.70;99.90;;;;;;5059778;28;20506;-84
2022/01/26 12:03:24;;;;;;;147.13;76.35;;;3.70;99.90;;;;;;5064019;28;20033;-82
2022/01/26 12:05:52;;;;;;;78.50;36.05;;;3.80;99.90;;;;;;5054370;28;20045;-84
2022/01/26 12:08:28;;;;;;;66.15;33.20;;;3.80;99.90;;;;;;4368341;28;10000666;-83
2022/01/26 12:10:54;;;;;;;80.03;34.67;;;3.70;99.90;;;;;;5073167;28;20498;-83
2022/01/26 12:13:28;;;;;;;60.47;30.60;;;3.80;99.90;;;;;;5070970;28;20044;-84
2022/01/26 12:15:58;;;;;;;61.97;30.48;;;3.80;99.90;;;;;;5069103;28;20036;-83
2022/01/26 12:35:50;;;;;;;79.05;36.10;;;3.90;99.90;;;;;;5068907;28;20052;-84
2022/01/26 12:38:31;;;;;;;74.40;35.38;;;3.90;99.90;;;;;;5067373;28;20408;-83
2022/01/26 12:43:47;;;;;;;72.72;35.55;;;3.80;99.90;;;;;;5068150;28;20123;-84
2022/01/26 12:46:17;;;;;;;79.55;34.70;;;2.90;99.90;;;;;;5051697;28;20040;-84
2022/01/26 12:48:49;;;;;;;79.25;34.78;;;3.80;99.90;;;;;;5067325;28;20269;-83
2022/01/26 12:51:16;;;;;;;79.82;34.58;;;3.80;99.90;;;;;;5068076;28;20049;-84
2022/01/26 12:53:42;;;;;;;71.45;34.28;;;3.90;99.90;;;;;;5065481;28;20137;-84
2022/01/26 12:56:11;;;;;;;68.60;31.90;;;3.90;99.90;;;;;;5067980;28;20090;-84
2022/01/26 12:58:39;;;;;;;65.78;32.03;;;3.90;99.90;;;;;;5052268;28;20036;-84
2022/01/26 13:01:07;;;;;;;90.47;38.28;;;3.90;99.90;;;;;;5067923;28;20048;-82
2022/01/26 13:03:38;;;;;;;73.20;32.40;;;3.90;99.90;;;;;;5067872;28;20048;-83
2022/01/26 13:06:27;;;;;;;70.60;32.85;;;3.80;99.90;;;;;;5064808;28;20399;-83
2022/01/26 13:08:55;;;;;;;71.43;31.52;;;3.90;99.90;;;;;;5063029;28;20037;-83
2022/01/26 13:11:22;;;;;;;75.57;35.10;;;4.30;99.90;;;;;;5064459;28;20159;-84
2022/01/26 13:13:48;;;;;;;71.78;34.03;;;4.50;99.90;;;;;;5055863;28;20044;-83
2022/01/26 13:16:23;;;;;;;65.25;30.38;;;4.00;99.90;;;;;;5064959;28;20052;-84
2022/01/26 13:19:14;;;;;;;64.40;30.55;;;4.00;99.90;;;;;;5064426;28;20456;-84
2022/01/26 13:25:15;;;;;;;63.47;29.00;;;6.00;99.90;;;;;;5067568;28;20063;-83
2022/01/26 13:27:18;;;;;;;64.82;30.15;;;4.10;99.90;;;;;;5050951;28;20403;-84
2022/01/26 13:30:00;;;;;;;54.05;28.92;;;4.30;99.90;;;;;;5072096;28;20048;-84
2022/01/26 13:43:34;;;;;;;49.08;26.50;;;4.40;99.90;;;;;;5067759;28;20063;-86
2022/01/26 13:46:28;;;;;;;61.33;29.45;;;4.30;99.90;;;;;;5067660;28;20048;-86
2022/01/26 13:49:13;;;;;;;52.45;27.77;;;4.30;99.90;;;;;;5076258;28;20083;-84
2022/01/26 13:52:30;;;;;;;55.45;26.27;;;4.30;99.90;;;;;;5071632;28;20453;-87
2022/01/26 13:59:57;;;;;;;60.88;29.75;;;4.30;99.90;;;;;;5071082;28;20461;-86
2022/01/26 14:02:26;;;;;;;58.22;27.55;;;4.40;99.90;;;;;;5064778;28;20061;-78
2022/01/26 14:04:52;;;;;;;61.65;30.98;;;4.40;99.90;;;;;;5068676;28;20091;-83
2022/01/26 14:07:17;;;;;;;67.80;32.40;;;4.40;99.90;;;;;;5065608;28;20076;-81
2022/01/26 14:09:45;;;;;;;58.78;29.42;;;4.30;99.90;;;;;;5067223;28;20127;-84
2022/01/26 14:12:20;;;;;;;55.95;29.60;;;4.50;99.90;;;;;;5065850;28;20115;-80
2022/01/26 14:14:52;;;;;;;59.03;28.33;;;6.20;99.90;;;;;;5061142;28;20053;-81
2022/01/26 14:17:27;;;;;;;60.22;27.67;;;4.40;99.90;;;;;;5063751;28;20072;-81
2022/01/26 14:27:45;;;;;;;53.75;26.20;;;4.50;99.90;;;;;;5063905;28;20041;-84
2022/01/26 14:35:47;;;;;;;44.47;21.58;;;4.50;99.90;;;;;;5070829;28;20059;-84
2022/01/26 14:50:55;;;;;;;58.10;26.13;;;4.60;99.90;;;;;;5066150;28;20056;-82
2022/01/26 15:40:46;;;;;;;53.13;26.67;;;4.80;99.90;;;;;;5064195;28;20052;-84
2022/01/26 15:50:57;;;;;;;58.95;25.65;;;4.90;99.90;;;;;;5069906;28;20491;-85
2022/01/26 15:57:18;;;;;;;64.57;25.98;;;4.90;99.90;;;;;;5070327;28;20048;-84
2022/01/26 18:32:56;;;;;;;50.90;24.40;;;5.30;99.90;;;;;;5068154;28;20048;-83
2022/01/26 18:46:21;;;;;;;35.50;19.58;;;5.50;99.90;;;;;;5073653;28;20064;-84
2022/01/26 18:51:34;;;;;;;35.95;17.63;;;5.50;99.90;;;;;;5067549;28;20049;-83
2022/01/26 18:54:00;;;;;;;40.83;19.00;;;7.30;99.90;;;;;;5073297;28;20055;-83
2022/01/26 18:56:27;;;;;;;29.90;15.68;;;5.50;99.90;;;;;;5074762;28;20036;-84
2022/01/26 18:58:53;;;;;;;37.33;19.23;;;5.60;99.90;;;;;;5073066;28;20044;-82
2022/01/26 19:01:18;;;;;;;36.35;17.00;;;5.60;99.90;;;;;;5073646;28;20036;-83
2022/01/26 19:03:44;;;;;;;35.05;17.98;;;5.60;99.90;;;;;;5073890;28;20044;-83
2022/01/26 19:06:11;;;;;;;27.60;13.95;;;7.90;99.90;;;;;;5055967;28;20045;-84
2022/01/26 19:08:39;;;;;;;28.75;16.48;;;5.50;99.90;;;;;;5073226;28;20066;-83
2022/01/26 19:11:07;;;;;;;33.92;17.77;;;5.70;99.90;;;;;;5073307;28;20052;-82
2022/01/26 19:13:32;;;;;;;35.65;18.48;;;5.80;99.90;;;;;;5072945;28;20051;-82
2022/01/26 19:16:05;;;;;;;33.78;18.10;;;5.80;99.90;;;;;;5073875;28;20055;-82
2022/01/26 19:24:17;;;;;;;35.00;17.75;;;4.60;99.90;;;;;;5064419;28;20258;-84
2022/01/26 19:26:49;;;;;;;37.38;18.55;;;5.70;99.90;;;;;;5065578;28;20040;-84
2022/01/26 19:29:32;;;;;;;30.52;17.77;;;5.30;99.90;;;;;;5054645;28;20381;-84
2022/01/26 19:40:50;;;;;;;32.58;17.55;;;5.80;99.90;;;;;;5065575;28;20052;-82